Time;durP1;ratioP1;P1;durP2;ratioP2;P2;SDS_P1;SDS_P2;PMS_P1;PMS_P2;Temp;Humidity;BMP_temperature;BMP_pressure;BME280_temperature;BME280_humidity;BME280_pressure;Samples;Min_cycle;Max_cycle;Signal;HPM_P1;HPM_P2
2023/06/03 00:01:42;;;;;;;12.80;4.90;;;15.10;70.40;;;14.53;56.85;101032.50;5002693;28;20046;-79
2023/06/03 00:04:14;;;;;;;13.07;5.35;;;15.10;70.50;;;14.52;56.72;101046.97;5004560;28;20046;-79
2023/06/03 00:06:41;;;;;;;12.75;5.60;;;15.10;70.50;;;14.51;56.75;101043.47;5007110;28;20042;-79
2023/06/03 00:09:09;;;;;;;13.73;5.60;;;15.10;70.60;;;14.49;56.87;101042.03;5008049;28;20042;-79
2023/06/03 00:11:37;;;;;;;10.98;5.03;;;15.10;70.70;;;14.48;56.91;101048.47;5007581;28;20048;-79
2023/06/03 00:14:07;;;;;;;12.75;5.07;;;15.10;70.70;;;14.45;57.13;101048.91;5005078;28;20050;-78
2023/06/03 00:16:34;;;;;;;13.43;5.32;;;15.10;70.90;;;14.45;57.07;101051.59;5000780;28;20398;-79
2023/06/03 00:19:01;;;;;;;13.75;5.40;;;15.10;70.70;;;14.43;57.14;101055.28;5009996;28;20049;-79
2023/06/03 00:21:29;;;;;;;10.75;5.22;;;15.10;70.90;;;14.39;57.10;101054.09;4993118;28;20073;-79
2023/06/03 00:23:57;;;;;;;12.43;5.35;;;15.00;70.90;;;14.38;57.23;101052.44;5009953;28;20046;-79
2023/06/03 00:26:25;;;;;;;10.95;4.78;;;15.00;70.90;;;14.35;57.29;101055.59;5011588;28;20121;-79
2023/06/03 00:28:57;;;;;;;13.27;5.38;;;15.00;70.90;;;14.34;57.14;101058.47;4994584;28;20045;-79
2023/06/03 00:31:26;;;;;;;12.38;5.07;;;15.00;70.90;;;14.34;57.08;101050.44;4988656;28;20108;-79
2023/06/03 00:33:53;;;;;;;11.63;5.22;;;15.00;70.90;;;14.31;57.44;101042.84;4998416;28;20140;-79
2023/06/03 00:36:20;;;;;;;13.18;5.63;;;15.00;71.10;;;14.28;57.32;101046.78;5011128;28;20517;-79
2023/06/03 00:38:47;;;;;;;14.18;5.25;;;14.90;71.10;;;14.27;57.51;101044.31;5001297;28;20088;-79
2023/06/03 00:41:14;;;;;;;12.95;5.68;;;14.90;71.30;;;14.24;57.36;101042.88;4994032;28;20053;-79
2023/06/03 00:43:42;;;;;;;12.07;5.95;;;14.90;71.30;;;14.22;57.52;101053.03;4991119;28;20077;-79
2023/06/03 00:46:11;;;;;;;10.68;5.75;;;14.90;71.50;;;14.20;57.50;101048.91;5009534;28;20046;-79
2023/06/03 00:48:39;;;;;;;11.27;5.22;;;14.90;71.50;;;14.17;57.63;101051.00;4993512;28;20826;-79
2023/06/03 00:51:07;;;;;;;12.95;5.30;;;14.80;71.50;;;14.16;57.84;101054.72;4992440;28;20046;-79
2023/06/03 00:53:34;;;;;;;12.35;5.35;;;14.80;71.60;;;14.14;57.64;101053.28;5008175;28;20456;-79
2023/06/03 00:56:02;;;;;;;11.10;5.05;;;14.80;71.70;;;14.10;57.75;101046.72;5012043;28;20073;-79
2023/06/03 00:58:29;;;;;;;13.88;5.15;;;14.80;71.80;;;14.07;57.91;101039.13;5010448;28;20117;-79
2023/06/03 01:00:59;;;;;;;11.82;5.55;;;14.70;71.80;;;14.07;57.81;101049.88;4993377;28;20054;-79
2023/06/03 01:03:26;;;;;;;13.23;5.65;;;14.70;71.80;;;14.02;58.06;101034.44;5006538;28;20156;-79
2023/06/03 01:06:18;;;;;;;14.63;5.35;;;14.70;72.10;;;14.00;57.79;101043.72;5006389;28;20049;-79
2023/06/03 01:08:57;;;;;;;11.00;5.25;;;14.70;72.00;;;13.97;58.08;101045.00;5009641;28;20042;-79
2023/06/03 01:11:37;;;;;;;11.80;5.53;;;14.60;71.90;;;13.94;57.70;101034.69;4993459;28;20538;-79
2023/06/03 01:14:12;;;;;;;11.60;5.93;;;14.60;72.10;;;13.94;57.95;101040.06;5010193;28;20477;-79
2023/06/03 01:16:47;;;;;;;9.77;5.07;;;14.60;72.10;;;13.92;58.11;101042.16;5004746;28;20577;-79
2023/06/03 01:19:34;;;;;;;13.07;5.70;;;14.50;72.40;;;13.88;58.15;101049.81;4989721;28;20061;-79
2023/06/03 01:22:06;;;;;;;12.93;5.45;;;14.50;72.40;;;13.86;58.20;101051.91;5010580;28;20120;-79
2023/06/03 01:24:37;;;;;;;13.98;5.88;;;14.50;72.50;;;13.83;58.24;101046.16;5009717;28;20050;-79
2023/06/03 01:27:05;;;;;;;12.98;5.63;;;14.40;72.40;;;13.81;58.24;101053.56;4984913;28;20049;-79
2023/06/03 01:29:33;;;;;;;12.77;5.22;;;14.40;72.30;;;13.79;58.17;101042.25;5002909;28;20042;-79
2023/06/03 01:32:01;;;;;;;12.85;5.47;;;14.40;72.50;;;13.76;58.35;101050.72;4991952;28;20052;-79
2023/06/03 01:34:29;;;;;;;11.98;5.25;;;14.40;72.50;;;13.74;58.24;101044.78;4992825;28;20565;-79
2023/06/03 01:36:58;;;;;;;10.25;5.53;;;14.30;72.50;;;13.72;58.14;101042.31;5009440;28;20068;-79
2023/06/03 01:39:26;;;;;;;15.85;6.13;;;14.30;72.50;;;13.71;58.28;101043.31;5008944;28;20046;-79
2023/06/03 01:41:55;;;;;;;12.38;5.07;;;14.30;72.70;;;13.69;58.40;101034.69;5006378;28;20053;-79
2023/06/03 01:44:25;;;;;;;13.43;5.70;;;14.30;72.70;;;13.67;58.18;101035.97;5006009;28;20045;-79
2023/06/03 01:46:52;;;;;;;14.43;5.78;;;14.30;72.70;;;13.66;58.36;101040.47;4991119;28;20054;-79
2023/06/03 01:49:19;;;;;;;14.57;5.90;;;14.30;72.70;;;13.66;58.57;101037.81;4993457;28;20506;-79
2023/06/03 01:51:47;;;;;;;13.88;6.00;;;14.30;72.80;;;13.66;58.52;101043.16;4993114;28;20058;-79
2023/06/03 01:54:15;;;;;;;15.05;6.15;;;14.30;72.90;;;13.64;58.63;101042.56;5007353;28;20052;-79
2023/06/03 01:56:43;;;;;;;13.80;5.97;;;14.30;72.90;;;13.66;58.78;101053.88;4993226;28;20042;-79
2023/06/03 01:59:12;;;;;;;13.98;5.55;;;14.30;73.10;;;13.64;58.79;101042.56;4988759;28;20050;-79
2023/06/03 02:01:43;;;;;;;15.07;5.40;;;14.20;73.10;;;13.63;58.70;101040.94;4992084;28;20426;-79
2023/06/03 02:04:10;;;;;;;16.48;6.05;;;14.20;73.10;;;13.61;58.74;101045.69;5008367;28;20080;-79
2023/06/03 02:06:37;;;;;;;9.65;5.70;;;14.30;73.30;;;13.59;58.78;101047.75;4991154;28;20489;-79
2023/06/03 02:09:05;;;;;;;9.55;4.90;;;14.20;73.10;;;13.57;58.90;101048.00;4993004;28;20045;-79
2023/06/03 02:11:32;;;;;;;11.50;5.65;;;14.20;73.20;;;13.55;58.77;101043.88;5008146;28;20403;-79
2023/06/03 02:13:59;;;;;;;12.80;5.60;;;14.20;73.10;;;13.53;58.86;101043.28;4991817;28;20489;-79
2023/06/03 02:16:27;;;;;;;12.15;5.90;;;14.10;73.20;;;13.49;58.83;101040.19;4990288;28;20057;-79
2023/06/03 02:18:55;;;;;;;12.80;5.70;;;14.10;73.20;;;13.47;58.98;101044.13;4992530;28;20046;-79
2023/06/03 02:21:22;;;;;;;10.20;5.63;;;14.10;73.20;;;13.43;58.77;101040.25;4990712;28;20059;-79
2023/06/03 02:23:50;;;;;;;16.60;5.70;;;14.10;73.20;;;13.42;58.63;101038.59;5008419;28;20049;-79
2023/06/03 02:26:18;;;;;;;11.68;5.82;;;14.00;73.30;;;13.38;58.73;101047.06;5008531;28;20166;-79
2023/06/03 02:28:45;;;;;;;10.35;5.45;;;14.00;73.20;;;13.36;58.83;101049.13;5008535;28;20459;-79
2023/06/03 02:31:12;;;;;;;11.25;6.15;;;14.00;73.30;;;13.34;58.91;101051.22;4990220;28;20048;-79
2023/06/03 02:33:41;;;;;;;16.50;6.20;;;14.00;73.40;;;13.31;58.79;101046.28;4988698;28;20108;-79
2023/06/03 02:36:09;;;;;;;8.73;5.05;;;14.00;73.40;;;13.30;58.83;101046.50;5009204;28;20356;-79
2023/06/03 02:38:36;;;;;;;15.38;6.22;;;13.90;73.30;;;13.28;58.91;101044.03;4992118;28;20037;-79
2023/06/03 02:41:04;;;;;;;11.93;5.47;;;13.90;73.40;;;13.26;58.77;101040.75;5008079;28;20038;-79
2023/06/03 02:43:31;;;;;;;13.18;5.32;;;13.90;73.40;;;13.24;58.89;101050.03;5009905;28;20454;-79
2023/06/03 02:45:58;;;;;;;12.75;5.68;;;13.90;73.50;;;13.21;58.96;101039.72;5007094;28;20046;-79
2023/06/03 02:48:26;;;;;;;11.23;5.50;;;13.80;73.50;;;13.20;58.93;101041.56;5004273;28;20057;-79
2023/06/03 02:50:55;;;;;;;12.15;5.63;;;13.80;73.50;;;13.17;58.77;101042.00;4991661;28;20073;-79
2023/06/03 02:53:23;;;;;;;17.45;6.00;;;13.80;73.50;;;13.16;58.84;101037.69;4991387;28;20084;-79
2023/06/03 02:55:50;;;;;;;12.70;6.10;;;13.80;73.50;;;13.17;58.94;101039.31;5007487;28;20046;-79
2023/06/03 02:58:17;;;;;;;10.48;5.50;;;13.80;73.50;;;13.18;59.20;101043.66;5009584;28;20457;-79
2023/06/03 03:00:45;;;;;;;15.38;6.07;;;13.80;73.90;;;13.17;59.21;101049.22;5007393;28;20140;-79
2023/06/03 03:03:13;;;;;;;11.23;6.07;;;13.80;74.00;;;13.17;59.28;101051.88;5033062;22;20056;-84
2023/06/03 03:05:40;;;;;;;16.17;6.90;;;13.80;73.90;;;13.17;59.18;101046.53;5018958;28;20056;-84
2023/06/03 03:08:09;;;;;;;12.43;5.65;;;13.80;73.80;;;13.19;59.08;101049.84;5019966;28;20056;-86
2023/06/03 03:10:36;;;;;;;15.27;6.53;;;13.80;73.90;;;13.20;59.33;101052.28;5016987;28;20079;-83
2023/06/03 03:13:04;;;;;;;14.93;5.95;;;13.80;73.90;;;13.22;59.52;101058.28;5010830;28;20045;-86
2023/06/03 03:15:32;;;;;;;14.95;6.35;;;13.80;74.30;;;13.23;59.54;101062.63;5027290;28;20034;-86
2023/06/03 03:17:59;;;;;;;13.30;6.70;;;13.80;74.20;;;13.25;59.63;101068.56;5032587;28;20532;-85
2023/06/03 03:20:29;;;;;;;12.25;6.10;;;13.80;74.10;;;13.28;59.62;101059.31;5014885;28;20045;-84
2023/06/03 03:22:56;;;;;;;12.80;6.45;;;13.90;74.30;;;13.29;59.72;101068.97;5033753;28;20061;-85
2023/06/03 03:25:27;;;;;;;15.30;6.30;;;13.90;74.40;;;13.30;59.74;101068.75;5010886;28;20053;-85
2023/06/03 03:27:55;;;;;;;14.57;6.40;;;13.90;74.70;;;13.31;59.81;101062.34;5009018;28;20128;-86
2023/06/03 03:30:23;;;;;;;15.80;7.28;;;13.90;74.60;;;13.33;59.90;101065.66;5010607;28;20369;-84
2023/06/03 03:32:50;;;;;;;12.15;5.82;;;13.90;74.50;;;13.35;59.72;101066.25;5007884;28;20144;-85
2023/06/03 03:35:22;;;;;;;13.73;5.95;;;14.00;74.60;;;13.35;59.59;101068.94;5025218;28;20122;-83
2023/06/03 03:38:02;;;;;;;13.68;6.18;;;14.00;74.30;;;13.36;59.61;101067.88;5008745;28;20156;-85
2023/06/03 03:40:33;;;;;;;14.55;6.28;;;14.00;74.50;;;13.38;59.65;101065.00;5010048;28;20065;-83
2023/06/03 03:43:02;;;;;;;14.07;6.25;;;14.00;74.50;;;13.40;59.86;101066.41;5009574;28;20757;-83
2023/06/03 03:45:34;;;;;;;11.48;6.25;;;14.00;74.50;;;13.43;59.81;101069.72;5028700;28;20102;-85
2023/06/03 03:48:04;;;;;;;11.07;5.40;;;14.10;74.30;;;13.46;59.54;101064.72;5017469;28;20045;-85
2023/06/03 03:50:44;;;;;;;12.25;6.07;;;14.10;74.30;;;13.47;59.58;101074.44;5008156;28;20045;-84
2023/06/03 03:53:15;;;;;;;19.05;6.15;;;14.10;74.30;;;13.47;59.48;101074.44;5026230;28;20459;-81
2023/06/03 03:55:46;;;;;;;12.85;6.30;;;14.10;74.20;;;13.51;59.42;101077.50;5018521;28;20050;-88
2023/06/03 03:58:25;;;;;;;11.35;5.78;;;14.10;74.10;;;13.49;59.55;101077.72;5037576;28;20042;-87
2023/06/03 04:00:53;;;;;;;11.73;5.72;;;14.10;74.10;;;13.51;59.42;101075.63;5011347;28;20076;-87
2023/06/03 04:03:23;;;;;;;12.38;5.93;;;14.10;74.10;;;13.52;59.13;101079.16;5032120;28;20425;-85
2023/06/03 04:05:51;;;;;;;12.63;6.22;;;14.20;73.90;;;13.53;58.99;101076.25;5018279;28;20056;-85
2023/06/03 04:08:48;;;;;;;13.82;5.95;;;14.20;73.70;;;13.56;58.70;101080.34;5024612;28;20052;-85
2023/06/03 04:11:25;;;;;;;12.35;5.75;;;14.20;73.70;;;13.56;58.77;101080.34;5008354;28;20059;-87
2023/06/03 04:13:54;;;;;;;13.10;5.80;;;14.20;73.70;;;13.57;58.56;101079.34;5012062;28;20050;-88
2023/06/03 04:16:51;;;;;;;17.08;5.22;;;14.20;73.20;;;13.58;58.33;101079.09;5009515;28;20045;-86
2023/06/03 04:19:30;;;;;;;13.75;5.13;;;14.20;73.10;;;13.60;58.02;101082.38;5017764;28;20140;-87
2023/06/03 04:21:59;;;;;;;11.68;4.75;;;14.20;72.70;;;13.62;57.59;101090.22;5006018;28;20057;-88
2023/06/03 04:24:27;;;;;;;9.65;5.28;;;14.20;72.60;;;13.62;57.51;101087.53;5017802;28;20056;-88
2023/06/03 04:26:57;;;;;;;9.60;4.53;;;14.30;72.40;;;13.62;57.32;101088.38;5025024;28;20517;-88
2023/06/03 04:29:24;;;;;;;12.63;5.03;;;14.30;72.10;;;13.64;57.24;101083.59;5009551;28;20041;-86
2023/06/03 04:31:52;;;;;;;8.55;4.35;;;14.30;71.90;;;13.72;57.08;101095.13;5025025;28;20099;-86
2023/06/03 04:34:20;;;;;;;13.20;5.25;;;14.30;72.00;;;13.80;56.98;101086.78;5019213;28;20071;-86
2023/06/03 04:36:47;;;;;;;8.60;4.70;;;14.40;71.80;;;13.93;56.47;101086.69;5018479;28;20053;-87
2023/06/03 04:39:17;;;;;;;8.82;4.50;;;14.50;71.20;;;14.06;56.47;101091.16;5027731;28;20041;-85
2023/06/03 04:41:45;;;;;;;12.98;4.90;;;14.60;71.40;;;14.19;56.14;101091.00;5007839;28;20049;-85
2023/06/03 04:44:14;;;;;;;7.70;4.10;;;14.70;71.00;;;14.32;55.78;101080.16;5017080;28;20064;-88
2023/06/03 04:46:45;;;;;;;16.00;3.97;;;14.90;70.60;;;14.48;56.06;101083.34;5009458;28;20041;-85
2023/06/03 04:49:14;;;;;;;9.38;4.20;;;15.00;70.90;;;14.63;56.01;101081.13;5017233;28;20046;-87
2023/06/03 04:51:42;;;;;;;9.43;3.78;;;15.20;70.50;;;14.78;54.94;101083.44;5030027;28;20037;-85
2023/06/03 04:54:11;;;;;;;11.35;3.72;;;15.30;69.30;;;14.91;54.69;101081.44;5006849;28;20061;-88
2023/06/03 04:56:43;;;;;;;13.32;3.95;;;15.50;69.20;;;15.06;53.74;101075.66;5009600;28;20124;-85
2023/06/03 04:59:12;;;;;;;7.47;3.72;;;15.60;68.10;;;15.20;53.00;101079.84;5009545;28;20076;-83
2023/06/03 05:01:48;;;;;;;11.38;4.10;;;15.70;67.20;;;15.34;52.50;101080.47;5014236;28;20053;-84
2023/06/03 05:04:19;;;;;;;8.30;3.88;;;15.90;66.30;;;15.48;52.22;101083.00;5010870;28;20673;-84
2023/06/03 05:06:48;;;;;;;8.45;3.40;;;16.00;66.00;;;15.62;51.67;101074.50;5029754;28;20060;-85
2023/06/03 05:09:16;;;;;;;8.20;3.70;;;16.20;65.20;;;15.77;51.42;101076.81;5023448;28;20029;-85
2023/06/03 05:11:46;;;;;;;10.95;3.70;;;16.30;64.90;;;15.89;50.83;101069.56;5013463;28;20167;-91
2023/06/03 05:14:15;;;;;;;7.43;3.38;;;16.50;64.20;;;15.97;51.13;101071.09;5013835;28;20759;-82
2023/06/03 05:16:43;;;;;;;8.30;3.60;;;16.50;64.50;;;16.06;50.62;101068.91;5012875;28;20049;-84
2023/06/03 05:19:11;;;;;;;8.68;3.70;;;16.70;63.80;;;16.15;50.18;101068.31;5012761;28;20490;-82
2023/06/03 05:21:40;;;;;;;9.85;3.70;;;16.80;63.30;;;16.25;49.94;101062.34;5023484;28;20044;-81
2023/06/03 05:24:09;;;;;;;9.77;4.07;;;16.80;62.70;;;16.36;49.91;101058.84;5027626;28;20038;-83
2023/06/03 05:26:36;;;;;;;13.38;3.58;;;17.00;63.00;;;16.46;49.32;101061.75;5029782;28;20790;-83
2023/06/03 05:29:03;;;;;;;8.75;3.53;;;17.00;62.10;;;16.53;48.22;101060.78;5028105;28;20126;-83
2023/06/03 05:31:32;;;;;;;13.65;4.10;;;17.10;60.70;;;16.61;48.48;101065.84;5014679;28;20045;-83
2023/06/03 05:33:59;;;;;;;9.35;3.60;;;17.20;61.00;;;16.68;47.50;101066.50;5011481;28;20151;-83
2023/06/03 05:36:27;;;;;;;9.15;3.25;;;17.30;59.70;;;16.78;46.80;101063.25;5020394;28;20077;-82
2023/06/03 05:38:58;;;;;;;8.70;2.88;;;17.40;58.70;;;16.86;46.95;101063.69;5012285;28;20053;-82
2023/06/03 05:41:26;;;;;;;8.85;3.38;;;17.50;58.50;;;16.95;46.49;101056.88;5009570;28;20046;-82
2023/06/03 05:43:55;;;;;;;6.13;3.13;;;17.50;58.30;;;17.03;46.94;101058.41;5015787;28;20094;-83
2023/06/03 05:46:22;;;;;;;6.82;2.80;;;17.70;58.90;;;17.11;46.26;101060.69;5039004;28;20588;-83
2023/06/03 05:48:51;;;;;;;9.80;2.90;;;17.70;57.70;;;17.15;44.97;101061.03;5011212;28;20588;-83
2023/06/03 05:51:20;;;;;;;8.80;2.83;;;17.70;56.60;;;17.21;44.54;101065.47;5021453;28;20119;-84
2023/06/03 05:53:47;;;;;;;11.25;2.85;;;17.80;56.00;;;17.29;44.06;101061.56;5024751;28;20052;-84
2023/06/03 05:56:19;;;;;;;5.90;2.20;;;17.90;55.70;;;17.35;43.52;101060.59;5017498;28;20076;-84
2023/06/03 05:58:47;;;;;;;10.43;2.55;;;17.90;54.80;;;17.43;43.09;101062.91;5010803;28;20052;-83
2023/06/03 06:01:15;;;;;;;7.45;2.40;;;18.00;54.40;;;17.50;43.64;101067.09;5011671;28;20506;-86
2023/06/03 06:03:44;;;;;;;6.05;2.30;;;18.10;54.80;;;17.59;43.47;101067.53;5016106;28;20041;-86
2023/06/03 06:06:14;;;;;;;6.88;2.45;;;18.20;54.90;;;17.64;43.20;101066.78;5021754;28;20456;-85
2023/06/03 06:08:42;;;;;;;5.95;2.10;;;18.20;54.60;;;17.66;42.22;101065.47;5033427;28;20041;-84
2023/06/03 06:11:11;;;;;;;14.68;2.17;;;18.30;53.30;;;17.72;41.34;101067.22;5013899;28;20142;-85
2023/06/03 06:13:38;;;;;;;6.97;2.50;;;18.30;51.80;;;17.78;41.17;101064.63;5012232;28;20056;-85
2023/06/03 06:16:07;;;;;;;5.95;2.10;;;18.40;51.80;;;17.85;40.73;101070.69;5009050;28;20566;-85
2023/06/03 06:18:36;;;;;;;4.55;1.90;;;18.50;51.50;;;17.85;40.93;101060.69;5004962;28;20437;-86
2023/06/03 06:21:03;;;;;;;5.80;1.98;;;18.50;51.50;;;17.94;40.12;101061.13;5015408;28;20047;-86
2023/06/03 06:23:34;;;;;;;7.72;2.05;;;18.60;50.40;;;18.00;40.12;101062.81;5010478;28;20520;-86
2023/06/03 06:26:02;;;;;;;5.35;1.88;;;18.60;50.60;;;18.06;40.03;101064.56;5014278;28;20170;-86
2023/06/03 06:28:32;;;;;;;7.00;2.20;;;18.70;50.50;;;18.10;39.87;101062.97;5017644;28;20040;-87
2023/06/03 06:31:06;;;;;;;5.03;2.10;;;18.70;50.20;;;18.17;38.67;101076.34;5019962;28;20131;-86
2023/06/03 06:33:37;;;;;;;6.03;1.95;;;18.80;48.70;;;18.22;38.33;101065.59;5012980;28;20048;-86
2023/06/03 06:36:28;;;;;;;6.77;2.30;;;18.90;48.30;;;18.25;38.37;101078.59;5014351;28;20049;-88
2023/06/03 06:38:57;;;;;;;7.95;2.10;;;18.90;48.00;;;18.28;38.76;101076.22;5010965;28;20296;-79
2023/06/03 06:41:27;;;;;;;5.47;2.00;;;18.90;48.70;;;18.34;38.10;101073.59;5018787;28;20416;-80
2023/06/03 06:43:57;;;;;;;6.10;2.05;;;19.00;47.90;;;18.36;38.15;101072.31;5024481;28;20055;-78
2023/06/03 06:46:25;;;;;;;4.70;1.60;;;19.00;47.70;;;18.37;36.62;101078.50;5008661;28;20091;-79
2023/06/03 06:48:52;;;;;;;5.00;1.80;;;19.00;46.10;;;18.38;37.04;101075.56;5027733;28;20047;-79
2023/06/03 06:51:22;;;;;;;4.95;1.80;;;19.00;46.40;;;18.46;37.48;101075.13;5007007;28;20046;-80
2023/06/03 06:53:51;;;;;;;10.77;2.10;;;19.10;47.20;;;18.47;37.22;101068.66;5006139;28;20136;-80
2023/06/03 06:56:21;;;;;;;4.50;1.52;;;19.10;46.50;;;18.55;37.15;101077.44;5010479;28;20134;-80
2023/06/03 06:58:57;;;;;;;4.15;1.50;;;19.20;46.60;;;18.61;36.95;101071.03;5011304;28;20484;-79
2023/06/03 07:01:24;;;;;;;4.85;1.92;;;19.30;46.50;;;18.64;35.95;101067.81;5021077;28;20045;-80
2023/06/03 07:03:55;;;;;;;7.57;1.55;;;19.30;45.10;;;18.59;36.14;101071.25;5023571;28;20045;-80
2023/06/03 07:06:22;;;;;;;5.40;1.50;;;19.30;45.10;;;18.51;35.15;101075.22;5024336;28;20041;-77
2023/06/03 07:08:54;;;;;;;5.85;1.60;;;19.20;44.10;;;18.43;35.69;101078.34;5008057;28;20463;-78
2023/06/03 07:11:26;;;;;;;6.00;2.00;;;19.10;44.60;;;18.41;35.24;101077.78;5025215;28;20056;-79
2023/06/03 07:13:57;;;;;;;5.25;1.70;;;19.10;44.10;;;18.39;35.86;101074.47;5031614;28;20049;-79
2023/06/03 07:16:24;;;;;;;4.30;1.63;;;19.10;44.70;;;18.45;35.71;101070.00;5007990;28;20528;-81
2023/06/03 07:18:53;;;;;;;9.45;1.75;;;19.10;44.60;;;18.42;35.54;101076.69;5031235;28;20490;-84
2023/06/03 07:21:25;;;;;;;6.13;1.60;;;19.10;44.60;;;18.53;36.92;101077.66;5023274;28;20045;-85
2023/06/03 07:23:54;;;;;;;;;;;19.20;46.00;;;18.60;36.13;101077.50;5009198;28;20048;-85
2023/06/03 07:26:25;;;;;;;3.97;1.50;;;19.20;45.00;;;18.65;35.90;101075.69;5007215;28;19967;-84
2023/06/03 07:28:56;;;;;;;4.53;1.52;;;19.30;44.60;;;18.68;35.56;101072.47;5013592;28;20044;-83
2023/06/03 07:31:24;;;;;;;6.65;1.60;;;19.30;44.60;;;18.73;35.89;101079.84;5010189;28;20173;-82
2023/06/03 07:33:54;;;;;;;8.60;2.03;;;19.30;44.60;;;18.81;35.75;101071.31;5033735;28;20116;-83
2023/06/03 07:36:30;;;;;;;5.57;1.60;;;19.40;44.60;;;18.87;36.07;101072.19;5010267;28;20053;-82
2023/06/03 07:39:02;;;;;;;3.25;1.20;;;19.50;45.20;;;18.91;35.99;101078.72;5006589;28;20875;-82
2023/06/03 07:41:40;;;;;;;7.00;1.23;;;19.60;44.70;;;18.95;35.95;101074.47;5008813;28;20752;-82
2023/06/03 07:44:15;;;;;;;4.05;1.55;;;19.60;44.90;;;18.92;35.53;101067.66;5012184;28;20757;-83
2023/06/03 07:46:44;;;;;;;2.72;1.30;;;19.50;44.10;;;18.96;35.35;101071.50;5028614;28;20076;-83
2023/06/03 07:49:13;;;;;;;6.70;1.67;;;19.60;43.70;;;19.04;35.97;101073.75;5027169;28;20041;-83
2023/06/03 07:51:44;;;;;;;4.93;1.30;;;19.60;44.50;;;19.08;34.77;101067.84;5026077;28;20138;-79
2023/06/03 07:54:11;;;;;;;4.43;1.48;;;19.70;43.10;;;19.10;34.92;101074.63;5021841;28;20128;-80
2023/06/03 07:56:39;;;;;;;8.70;1.40;;;19.80;43.10;;;19.09;34.86;101069.50;5027881;28;20049;-79
2023/06/03 07:59:07;;;;;;;3.60;1.33;;;19.70;43.20;;;19.06;33.92;101072.69;5024911;28;20120;-81
2023/06/03 08:01:36;;;;;;;6.22;2.00;;;19.70;42.00;;;19.09;33.83;101074.91;5029706;28;20146;-80
2023/06/03 08:04:11;;;;;;;8.80;1.50;;;19.70;41.90;;;19.10;34.60;101071.94;5030090;28;20055;-79
2023/06/03 08:06:39;;;;;;;5.90;1.35;;;19.80;42.70;;;19.13;34.50;101070.59;5021944;28;20876;-79
2023/06/03 08:09:06;;;;;;;4.60;1.20;;;19.80;42.70;;;19.14;33.96;101073.06;5025754;28;20052;-80
2023/06/03 08:11:36;;;;;;;3.47;1.35;;;19.80;41.90;;;19.12;34.69;101068.97;5025906;28;20045;-79
2023/06/03 08:14:03;;;;;;;6.68;1.30;;;19.80;42.70;;;19.15;34.09;101058.47;5023231;28;20053;-79
2023/06/03 08:16:36;;;;;;;7.45;1.45;;;19.80;41.90;;;19.18;34.21;101060.69;5025614;28;20052;-79
2023/06/03 08:19:06;;;;;;;3.17;1.20;;;19.80;42.30;;;19.22;34.22;101067.19;5008425;28;20107;-79
2023/06/03 08:21:36;;;;;;;5.78;1.60;;;19.90;41.90;;;19.26;33.44;101057.50;5016979;28;20061;-79
2023/06/03 08:24:03;;;;;;;5.60;1.42;;;19.90;41.50;;;19.31;34.05;101045.91;5027014;28;20037;-78
2023/06/03 08:26:30;;;;;;;4.55;1.55;;;19.90;42.10;;;19.40;34.55;101074.16;5028404;28;20034;-78
2023/06/03 08:28:58;;;;;;;3.13;1.30;;;20.00;42.90;;;19.38;33.36;101070.88;5026327;28;20053;-79
2023/06/03 08:31:25;;;;;;;3.58;1.30;;;20.00;41.00;;;19.36;32.58;101058.69;5025144;28;20073;-78
2023/06/03 08:33:54;;;;;;;4.97;1.48;;;20.00;40.00;;;19.36;33.28;101062.19;5026826;28;20103;-79
2023/06/03 08:36:22;;;;;;;3.83;1.30;;;20.00;40.80;;;19.33;33.07;101065.44;5027103;28;20045;-79
2023/06/03 08:38:49;;;;;;;3.90;1.30;;;20.00;40.40;;;19.29;32.83;101059.69;5028059;28;20046;-86
2023/06/03 08:41:17;;;;;;;3.10;1.42;;;20.00;40.00;;;19.28;32.61;101057.25;5031143;28;20045;-82
2023/06/03 08:43:50;;;;;;;3.90;1.23;;;19.90;40.20;;;19.28;32.54;101044.56;5030413;28;20046;-86
2023/06/03 08:46:24;;;;;;;6.28;1.58;;;19.90;39.70;;;19.33;34.91;101043.78;5014858;28;20041;-85
2023/06/03 08:49:03;;;;;;;5.57;1.20;;;20.00;42.60;;;19.40;33.76;101048.97;5029535;28;20074;-86
2023/06/03 08:51:38;;;;;;;4.72;1.30;;;20.00;41.50;;;19.42;33.66;101060.34;5030598;28;20041;-84
2023/06/03 08:54:13;;;;;;;3.22;1.20;;;20.00;41.30;;;19.45;32.81;101051.75;5014187;28;20045;-88
2023/06/03 08:56:45;;;;;;;3.40;1.50;;;20.10;40.30;;;19.39;33.18;101053.59;5012891;28;20076;-87
2023/06/03 08:59:19;;;;;;;6.30;1.42;;;20.00;40.40;;;19.38;33.27;101056.56;5014014;28;20466;-87
2023/06/03 09:01:51;;;;;;;8.43;1.70;;;20.00;40.70;;;19.26;32.73;101053.97;5012194;28;20041;-87
2023/06/03 09:04:19;;;;;;;;;;;20.00;39.90;;;19.29;32.83;101058.88;5063010;22;20072;-75
2023/06/03 09:06:48;;;;;;;8.15;1.27;;;19.90;40.30;;;19.30;32.35;101055.09;5045565;28;20337;-75
2023/06/03 09:09:16;;;;;;;6.35;1.48;;;19.90;39.60;;;19.39;33.08;101052.78;5050446;28;20454;-75
2023/06/03 09:11:45;;;;;;;3.00;1.20;;;20.00;40.50;;;19.42;34.09;101047.66;5046982;28;20095;-76
2023/06/03 09:14:14;;;;;;;4.85;1.48;;;20.10;41.80;;;19.43;32.60;101043.06;5018024;28;20033;-76
2023/06/03 09:16:42;;;;;;;4.90;1.25;;;20.10;39.90;;;19.43;32.39;101067.44;5048763;28;20041;-76
2023/06/03 09:19:11;;;;;;;5.25;1.10;;;20.00;39.90;;;19.38;32.69;101045.72;5031589;28;20056;-75
2023/06/03 09:21:44;;;;;;;5.38;1.52;;;20.00;39.90;;;19.37;32.44;101050.31;5048648;28;20120;-75
2023/06/03 09:24:11;;;;;;;4.38;1.45;;;20.00;39.90;;;19.40;32.71;101048.97;5042835;28;20593;-76
2023/06/03 09:26:39;;;;;;;6.13;1.27;;;20.00;40.00;;;19.46;32.90;101058.78;5050477;28;20045;-76
2023/06/03 09:29:07;;;;;;;5.80;1.20;;;20.10;40.30;;;19.43;32.05;101046.59;5050410;28;20045;-76
2023/06/03 09:31:34;;;;;;;2.80;1.10;;;20.10;39.50;;;19.42;32.23;101052.25;5047347;28;20064;-76
2023/06/03 09:34:02;;;;;;;5.55;1.33;;;20.10;39.10;;;19.40;32.14;101038.97;5028466;28;20052;-76
2023/06/03 09:36:46;;;;;;;4.82;1.48;;;20.10;39.30;;;19.31;31.95;101048.63;5048934;28;20140;-78
2023/06/03 09:39:16;;;;;;;7.28;1.50;;;20.00;38.80;;;19.27;32.61;101055.59;5030947;28;20521;-73
2023/06/03 09:41:44;;;;;;;4.85;1.50;;;19.90;39.90;;;19.28;33.42;101049.97;5030336;28;20041;-74
2023/06/03 09:44:12;;;;;;;3.70;1.42;;;19.90;40.70;;;19.34;33.84;101048.13;5035290;28;20501;-73
2023/06/03 09:46:39;;;;;;;7.47;1.80;;;20.00;41.40;;;19.41;33.85;101051.44;5040111;28;20047;-73
2023/06/03 09:49:11;;;;;;;8.60;1.85;;;20.00;41.20;;;19.46;33.93;101054.19;5049282;28;20128;-72
2023/06/03 09:51:43;;;;;;;5.05;1.38;;;20.10;41.30;;;19.45;32.74;101057.97;5042113;28;20124;-73
2023/06/03 09:54:16;;;;;;;7.05;1.40;;;20.10;40.10;;;19.48;33.96;101052.06;5027272;28;20045;-73
2023/06/03 09:56:46;;;;;;;16.75;2.05;;;20.20;41.50;;;19.51;32.46;101054.22;5043315;28;20118;-73
2023/06/03 09:59:15;;;;;;;5.38;1.45;;;20.20;39.50;;;19.52;33.24;101058.59;5046184;28;20044;-73
2023/06/03 10:01:45;;;;;;;7.80;1.45;;;20.20;40.70;;;19.53;32.87;101051.28;5030164;28;20041;-73
2023/06/03 10:04:13;;;;;;;3.22;1.50;;;20.20;40.00;;;19.55;32.14;101047.22;5048661;28;20052;-72
2023/06/03 10:06:40;;;;;;;5.03;1.45;;;20.20;39.20;;;19.54;32.66;101061.84;5050020;28;20574;-73
2023/06/03 10:09:21;;;;;;;4.47;1.60;;;20.20;39.90;;;19.48;32.48;101052.06;5048708;28;20045;-73
2023/06/03 10:11:51;;;;;;;4.13;1.45;;;20.10;39.60;;;19.45;32.61;101047.16;5047221;28;20120;-73
2023/06/03 10:14:25;;;;;;;3.97;1.52;;;20.10;39.70;;;19.45;34.09;101046.31;5047587;28;20106;-72
2023/06/03 10:17:07;;;;;;;6.35;1.73;;;20.10;41.50;;;19.48;35.31;101046.66;5047505;28;20053;-72
2023/06/03 10:19:40;;;;;;;7.03;1.50;;;20.10;43.10;;;19.54;33.66;101052.91;5043999;28;20120;-72
2023/06/03 10:22:09;;;;;;;4.75;1.75;;;20.20;40.90;;;19.60;33.46;101043.78;5046360;28;20688;-73